Flight Track Log - Related Links

Times and Time Zones

All times are in EDT time to prevent confusion due to time zone crossing. See the CTL61 flight status page for this flight to view local times or setup timezone preferences in your user account.

Time Position Orientation Groundspeed Altitude Reporting Facility
EDT Latitude Longitude Course Direction KTS MPH feet Rate Location/Type
Tue 11:15:16 PM 37.3836 -81.2661 345° North 131 151 6,100  Level Indianapolis Center
Tue 11:16:17 PM 37.4250 -81.2783 347° North 152 175 6,100  Level Indianapolis Center
Tue 11:17:18 PM 37.4719 -81.3061 335° Northwest 159 183 6,100  Level Indianapolis Center
Tue 11:18:20 PM 37.5164 -81.3197 346° North 164 189 6,100  Level Indianapolis Center
Tue 11:19:21 PM 37.5606 -81.3328 347° North 168 193 6,100  Level Indianapolis Center
Tue 11:20:22 PM 37.6036 -81.3472 345° North 166 191 6,100  Level Indianapolis Center
Tue 11:21:23 PM 37.6592 -81.3625 348° North 173 199 6,100  Level Indianapolis Center
Tue 11:22:24 PM 37.7047 -81.3764 346° North 174 200 6,100  Level Indianapolis Center
Tue 11:23:25 PM 37.7511 -81.3917 345° North 175 201 6,100  Level Indianapolis Center
Tue 11:24:26 PM 37.7967 -81.4064 346° North 174 200 6,100  Level Indianapolis Center
Tue 11:25:28 PM 37.8422 -81.4194 347° North 172 198 6,100 -49 Level Indianapolis Center
Tue 11:26:29 PM 37.8883 -81.4350 345° North 171 197 6,000 -49 Descending Indianapolis Center
Tue 11:27:30 PM 37.9328 -81.4489 346° North 165 190 6,000 49 Level Indianapolis Center
Tue 11:28:31 PM 37.9856 -81.4644 347° North 161 185 6,100 -148 Climbing Indianapolis Center
Tue 11:29:32 PM 38.0289 -81.4792 345° North 162 186 5,700 -443 Descending Indianapolis Center
Tue 11:30:33 PM 38.0747 -81.4928 347° North 168 193 5,200 -492 Descending Indianapolis Center
Tue 11:31:34 PM 38.1181 -81.5078 345° North 164 189 4,700 -541 Descending Indianapolis Center
Tue 11:32:35 PM 38.1617 -81.5214 346° North 163 188 4,100 -295 Descending Indianapolis Center
Tue 11:33:36 PM 38.2019 -81.5317 349° North 153 176 4,100 -98 Level Indianapolis Center
Tue 11:34:37 PM 38.2397 -81.5422 348° North 142 163 3,900 -443 Descending Indianapolis Center
Tue 11:35:38 PM 38.2822 -81.5444 358° North 148 170 3,200 -639 Descending Indianapolis Center
Tue 11:36:39 PM 38.3214 -81.5658 337° Northwest 151 174 2,600 -496 Descending Indianapolis Center
Tue 11:37:39 PM 38.3583 -81.5636 North 145 167 2,200 -496 Descending Indianapolis Center
Tue 11:38:40 PM 38.3853 -81.5636 360° North 123 142 1,600 -443 Descending Indianapolis Center
Tue 11:39:41 PM 38.3764 -81.6058 255° West 118 136 1,300 -295 Descending Indianapolis Center

Login

Don't have an account? Register now (free) for customized features, flight alerts, and more!